sensor_id;sensor_type;location;lat;lon;timestamp;pressure;altitude;pressure_sealevel;temperature;humidity
30421;BME280;17218;54.070;10.012;2023-02-28T00:00:48;102973.50;;;4.20;100.00
30421;BME280;17218;54.070;10.012;2023-02-28T00:03:14;102959.34;;;4.27;100.00
30421;BME280;17218;54.070;10.012;2023-02-28T00:05:41;102967.75;;;4.24;100.00
30421;BME280;17218;54.070;10.012;2023-02-28T00:08:09;102954.84;;;4.23;100.00
30421;BME280;17218;54.070;10.012;2023-02-28T00:10:35;102964.56;;;4.28;100.00
30421;BME280;17218;54.070;10.012;2023-02-28T00:13:04;102964.50;;;4.44;100.00
30421;BME280;17218;54.070;10.012;2023-02-28T00:15:31;102962.44;;;4.53;100.00
30421;BME280;17218;54.070;10.012;2023-02-28T00:17:58;102961.41;;;4.49;100.00
30421;BME280;17218;54.070;10.012;2023-02-28T00:20:24;102962.81;;;4.44;100.00
30421;BME280;17218;54.070;10.012;2023-02-28T00:22:53;102965.06;;;4.38;100.00
30421;BME280;17218;54.070;10.012;2023-02-28T00:25:23;102964.03;;;4.19;100.00
30421;BME280;17218;54.070;10.012;2023-02-28T00:27:50;102966.47;;;3.86;100.00
30421;BME280;17218;54.070;10.012;2023-02-28T00:30:18;102962.25;;;3.71;100.00
30421;BME280;17218;54.070;10.012;2023-02-28T00:32:45;102959.50;;;3.83;100.00
30421;BME280;17218;54.070;10.012;2023-02-28T00:35:12;102968.78;;;3.81;100.00
30421;BME280;17218;54.070;10.012;2023-02-28T00:37:39;102962.16;;;3.69;100.00
30421;BME280;17218;54.070;10.012;2023-02-28T00:40:06;102961.53;;;3.74;100.00
30421;BME280;17218;54.070;10.012;2023-02-28T00:42:35;102962.25;;;3.71;100.00
30421;BME280;17218;54.070;10.012;2023-02-28T00:45:02;102962.69;;;3.49;100.00
30421;BME280;17218;54.070;10.012;2023-02-28T00:47:30;102971.72;;;3.42;100.00
30421;BME280;17218;54.070;10.012;2023-02-28T00:49:56;102976.63;;;3.39;100.00
30421;BME280;17218;54.070;10.012;2023-02-28T00:52:23;102983.34;;;3.37;100.00
30421;BME280;17218;54.070;10.012;2023-02-28T00:54:49;102972.56;;;3.42;100.00
30421;BME280;17218;54.070;10.012;2023-02-28T00:57:16;102967.97;;;3.52;100.00
30421;BME280;17218;54.070;10.012;2023-02-28T00:59:43;102973.63;;;3.46;100.00
30421;BME280;17218;54.070;10.012;2023-02-28T01:02:10;102975.84;;;3.25;100.00
30421;BME280;17218;54.070;10.012;2023-02-28T01:04:36;102982.31;;;3.04;100.00
30421;BME280;17218;54.070;10.012;2023-02-28T01:07:03;102979.75;;;3.04;100.00
30421;BME280;17218;54.070;10.012;2023-02-28T01:09:29;102970.97;;;3.29;100.00
30421;BME280;17218;54.070;10.012;2023-02-28T01:11:56;102975.41;;;3.47;100.00
30421;BME280;17218;54.070;10.012;2023-02-28T01:14:22;102975.22;;;3.59;100.00
30421;BME280;17218;54.070;10.012;2023-02-28T01:16:50;102977.09;;;3.62;100.00
30421;BME280;17218;54.070;10.012;2023-02-28T01:19:17;102976.81;;;3.57;100.00
30421;BME280;17218;54.070;10.012;2023-02-28T01:21:44;102975.97;;;3.56;100.00
30421;BME280;17218;54.070;10.012;2023-02-28T01:24:10;102974.63;;;3.63;100.00
30421;BME280;17218;54.070;10.012;2023-02-28T01:26:37;102965.50;;;3.68;100.00
30421;BME280;17218;54.070;10.012;2023-02-28T01:29:03;102972.59;;;3.73;100.00
30421;BME280;17218;54.070;10.012;2023-02-28T01:31:30;102955.34;;;3.85;100.00
30421;BME280;17218;54.070;10.012;2023-02-28T01:33:57;102965.22;;;3.94;100.00
30421;BME280;17218;54.070;10.012;2023-02-28T01:36:25;102971.31;;;3.96;100.00
30421;BME280;17218;54.070;10.012;2023-02-28T01:38:52;102972.75;;;3.91;100.00
30421;BME280;17218;54.070;10.012;2023-02-28T01:41:20;102974.72;;;3.65;100.00
30421;BME280;17218;54.070;10.012;2023-02-28T01:43:57;102975.25;;;3.00;100.00
30421;BME280;17218;54.070;10.012;2023-02-28T01:46:24;102976.09;;;2.72;100.00
30421;BME280;17218;54.070;10.012;2023-02-28T01:48:54;102978.59;;;2.70;100.00
30421;BME280;17218;54.070;10.012;2023-02-28T01:51:26;102970.41;;;2.76;100.00
30421;BME280;17218;54.070;10.012;2023-02-28T01:53:58;102981.47;;;2.61;100.00
30421;BME280;17218;54.070;10.012;2023-02-28T01:56:28;102970.44;;;2.62;100.00
30421;BME280;17218;54.070;10.012;2023-02-28T01:58:55;102966.28;;;2.65;100.00
30421;BME280;17218;54.070;10.012;2023-02-28T02:01:23;102973.16;;;2.79;100.00
30421;BME280;17218;54.070;10.012;2023-02-28T02:03:52;102970.06;;;2.85;100.00
30421;BME280;17218;54.070;10.012;2023-02-28T02:06:21;102969.38;;;2.88;100.00
30421;BME280;17218;54.070;10.012;2023-02-28T02:08:49;102962.44;;;3.00;100.00
30421;BME280;17218;54.070;10.012;2023-02-28T02:11:19;102963.16;;;3.13;100.00
30421;BME280;17218;54.070;10.012;2023-02-28T02:14:02;102960.53;;;3.26;100.00
30421;BME280;17218;54.070;10.012;2023-02-28T02:16:48;102963.81;;;3.39;100.00
30421;BME280;17218;54.070;10.012;2023-02-28T02:19:36;102966.13;;;3.34;100.00
30421;BME280;17218;54.070;10.012;2023-02-28T02:22:23;102965.00;;;3.00;100.00
30421;BME280;17218;54.070;10.012;2023-02-28T02:25:11;102962.09;;;2.94;100.00
30421;BME280;17218;54.070;10.012;2023-02-28T02:28:03;102953.78;;;2.98;100.00
30421;BME280;17218;54.070;10.012;2023-02-28T02:30:58;102953.47;;;3.07;100.00
30421;BME280;17218;54.070;10.012;2023-02-28T02:33:38;102945.34;;;3.14;100.00
30421;BME280;17218;54.070;10.012;2023-02-28T02:36:18;102955.09;;;2.91;100.00
30421;BME280;17218;54.070;10.012;2023-02-28T02:38:50;102952.56;;;2.78;100.00
30421;BME280;17218;54.070;10.012;2023-02-28T02:41:23;102950.13;;;2.79;100.00
30421;BME280;17218;54.070;10.012;2023-02-28T02:43:54;102958.41;;;2.75;100.00
30421;BME280;17218;54.070;10.012;2023-02-28T02:46:28;102956.03;;;2.78;100.00
30421;BME280;17218;54.070;10.012;2023-02-28T02:48:58;102968.22;;;2.82;100.00
30421;BME280;17218;54.070;10.012;2023-02-28T02:51:30;102952.31;;;2.73;100.00
30421;BME280;17218;54.070;10.012;2023-02-28T02:54:02;102957.41;;;2.73;100.00
30421;BME280;17218;54.070;10.012;2023-02-28T02:56:32;102956.44;;;2.71;100.00
30421;BME280;17218;54.070;10.012;2023-02-28T02:59:02;102963.22;;;2.70;100.00
30421;BME280;17218;54.070;10.012;2023-02-28T03:01:30;102959.81;;;2.70;100.00
30421;BME280;17218;54.070;10.012;2023-02-28T03:04:01;102960.66;;;2.70;100.00
30421;BME280;17218;54.070;10.012;2023-02-28T03:06:30;102964.50;;;2.77;100.00
30421;BME280;17218;54.070;10.012;2023-02-28T03:08:56;102965.06;;;2.86;100.00
30421;BME280;17218;54.070;10.012;2023-02-28T03:11:23;102961.19;;;2.93;100.00
30421;BME280;17218;54.070;10.012;2023-02-28T03:14:07;102965.38;;;3.06;100.00
30421;BME280;17218;54.070;10.012;2023-02-28T03:16:42;102970.16;;;3.15;100.00
30421;BME280;17218;54.070;10.012;2023-02-28T03:19:25;102954.28;;;3.21;100.00
30421;BME280;17218;54.070;10.012;2023-02-28T03:22:07;102980.88;;;3.23;100.00
30421;BME280;17218;54.070;10.012;2023-02-28T03:24:43;102977.25;;;3.19;100.00
30421;BME280;17218;54.070;10.012;2023-02-28T03:27:16;102974.91;;;3.09;100.00
30421;BME280;17218;54.070;10.012;2023-02-28T03:29:50;102973.22;;;3.09;100.00
30421;BME280;17218;54.070;10.012;2023-02-28T03:32:21;102981.34;;;3.02;100.00
30421;BME280;17218;54.070;10.012;2023-02-28T03:34:55;102979.59;;;3.01;100.00
30421;BME280;17218;54.070;10.012;2023-02-28T03:37:25;102972.69;;;3.00;100.00
30421;BME280;17218;54.070;10.012;2023-02-28T03:39:59;102967.28;;;2.95;100.00
30421;BME280;17218;54.070;10.012;2023-02-28T03:42:28;102971.53;;;2.95;100.00
30421;BME280;17218;54.070;10.012;2023-02-28T03:44:58;102969.78;;;2.94;100.00
30421;BME280;17218;54.070;10.012;2023-02-28T03:47:29;102964.91;;;2.98;100.00
30421;BME280;17218;54.070;10.012;2023-02-28T03:50:01;102974.63;;;3.04;100.00
30421;BME280;17218;54.070;10.012;2023-02-28T03:52:36;102972.25;;;3.07;100.00
30421;BME280;17218;54.070;10.012;2023-02-28T03:55:07;102976.41;;;3.05;100.00
30421;BME280;17218;54.070;10.012;2023-02-28T03:57:39;102971.19;;;3.04;100.00
30421;BME280;17218;54.070;10.012;2023-02-28T04:00:11;102965.00;;;3.00;100.00
30421;BME280;17218;54.070;10.012;2023-02-28T04:02:39;102966.88;;;3.03;100.00
30421;BME280;17218;54.070;10.012;2023-02-28T04:05:06;102968.63;;;3.04;100.00
30421;BME280;17218;54.070;10.012;2023-02-28T04:07:34;102964.22;;;3.01;100.00
30421;BME280;17218;54.070;10.012;2023-02-28T04:10:02;102962.94;;;2.94;100.00
30421;BME280;17218;54.070;10.012;2023-02-28T04:12:29;102964.13;;;2.71;100.00
30421;BME280;17218;54.070;10.012;2023-02-28T04:14:55;102962.31;;;2.41;100.00
30421;BME280;17218;54.070;10.012;2023-02-28T04:17:22;102968.13;;;2.11;100.00
30421;BME280;17218;54.070;10.012;2023-02-28T04:19:48;102975.69;;;1.96;100.00
30421;BME280;17218;54.070;10.012;2023-02-28T04:25:38;102972.25;;;2.09;100.00
30421;BME280;17218;54.070;10.012;2023-02-28T04:28:05;102972.75;;;2.31;100.00
30421;BME280;17218;54.070;10.012;2023-02-28T04:30:32;102992.78;;;2.52;100.00
30421;BME280;17218;54.070;10.012;2023-02-28T04:32:59;102983.03;;;2.59;100.00
30421;BME280;17218;54.070;10.012;2023-02-28T04:35:26;102982.31;;;2.76;100.00
30421;BME280;17218;54.070;10.012;2023-02-28T04:37:52;102980.31;;;2.85;100.00
30421;BME280;17218;54.070;10.012;2023-02-28T04:40:19;102983.94;;;2.89;100.00
30421;BME280;17218;54.070;10.012;2023-02-28T04:42:46;102985.81;;;2.91;100.00
30421;BME280;17218;54.070;10.012;2023-02-28T04:45:13;102974.50;;;2.88;100.00
30421;BME280;17218;54.070;10.012;2023-02-28T04:47:39;102993.84;;;2.69;100.00
30421;BME280;17218;54.070;10.012;2023-02-28T04:50:07;102975.84;;;2.54;100.00
30421;BME280;17218;54.070;10.012;2023-02-28T04:52:33;102979.81;;;2.48;100.00
30421;BME280;17218;54.070;10.012;2023-02-28T04:55:00;102974.41;;;2.44;100.00
30421;BME280;17218;54.070;10.012;2023-02-28T04:57:26;102970.78;;;2.40;100.00
30421;BME280;17218;54.070;10.012;2023-02-28T04:59:54;102969.22;;;2.42;100.00
30421;BME280;17218;54.070;10.012;2023-02-28T05:02:21;102972.94;;;2.47;100.00
30421;BME280;17218;54.070;10.012;2023-02-28T05:04:48;102975.50;;;2.47;100.00
30421;BME280;17218;54.070;10.012;2023-02-28T05:07:15;102981.47;;;2.48;100.00
30421;BME280;17218;54.070;10.012;2023-02-28T05:09:41;102977.25;;;2.48;100.00
30421;BME280;17218;54.070;10.012;2023-02-28T05:12:08;102979.72;;;2.47;100.00
30421;BME280;17218;54.070;10.012;2023-02-28T05:14:35;102977.25;;;2.35;100.00
30421;BME280;17218;54.070;10.012;2023-02-28T05:17:03;102980.75;;;2.22;100.00
30421;BME280;17218;54.070;10.012;2023-02-28T05:19:29;102986.53;;;2.06;100.00
30421;BME280;17218;54.070;10.012;2023-02-28T05:21:56;102968.63;;;1.78;100.00
30421;BME280;17218;54.070;10.012;2023-02-28T05:24:22;102971.47;;;1.70;100.00
30421;BME280;17218;54.070;10.012;2023-02-28T05:26:50;102964.06;;;1.47;100.00
30421;BME280;17218;54.070;10.012;2023-02-28T05:29:18;102969.47;;;1.13;100.00
30421;BME280;17218;54.070;10.012;2023-02-28T05:31:44;102967.19;;;0.92;100.00
30421;BME280;17218;54.070;10.012;2023-02-28T05:34:12;102962.13;;;0.80;100.00
30421;BME280;17218;54.070;10.012;2023-02-28T05:36:41;102969.94;;;0.69;100.00
30421;BME280;17218;54.070;10.012;2023-02-28T05:39:07;102976.03;;;0.59;100.00
30421;BME280;17218;54.070;10.012;2023-02-28T05:41:38;102970.72;;;0.56;100.00
30421;BME280;17218;54.070;10.012;2023-02-28T05:44:05;102968.63;;;0.63;100.00
30421;BME280;17218;54.070;10.012;2023-02-28T05:46:31;102974.94;;;0.68;100.00
30421;BME280;17218;54.070;10.012;2023-02-28T05:48:58;102982.69;;;0.69;100.00
30421;BME280;17218;54.070;10.012;2023-02-28T05:54:02;102993.69;;;0.68;100.00
30421;BME280;17218;54.070;10.012;2023-02-28T05:56:29;102992.13;;;0.58;100.00
30421;BME280;17218;54.070;10.012;2023-02-28T05:58:55;102989.72;;;0.48;100.00
30421;BME280;17218;54.070;10.012;2023-02-28T06:01:30;102994.03;;;0.37;100.00
30421;BME280;17218;54.070;10.012;2023-02-28T06:03:58;102992.81;;;0.32;100.00
30421;BME280;17218;54.070;10.012;2023-02-28T06:06:24;102994.84;;;0.24;100.00
30421;BME280;17218;54.070;10.012;2023-02-28T06:08:51;102998.50;;;0.16;100.00
30421;BME280;17218;54.070;10.012;2023-02-28T06:11:19;102997.72;;;0.05;100.00
30421;BME280;17218;54.070;10.012;2023-02-28T06:13:46;103001.03;;;0.04;100.00
30421;BME280;17218;54.070;10.012;2023-02-28T06:16:12;103010.69;;;-0.04;100.00
30421;BME280;17218;54.070;10.012;2023-02-28T06:18:39;103011.69;;;-0.02;100.00
30421;BME280;17218;54.070;10.012;2023-02-28T06:21:05;103009.88;;;-0.03;100.00
30421;BME280;17218;54.070;10.012;2023-02-28T06:23:34;103009.34;;;0.01;100.00
30421;BME280;17218;54.070;10.012;2023-02-28T06:26:00;103022.53;;;-0.05;100.00
30421;BME280;17218;54.070;10.012;2023-02-28T06:28:28;103024.75;;;0.03;100.00
30421;BME280;17218;54.070;10.012;2023-02-28T06:30:55;103021.66;;;0.07;100.00
30421;BME280;17218;54.070;10.012;2023-02-28T06:33:21;103033.75;;;0.21;100.00
30421;BME280;17218;54.070;10.012;2023-02-28T06:35:50;103045.25;;;0.28;100.00
30421;BME280;17218;54.070;10.012;2023-02-28T06:38:17;103041.94;;;0.29;100.00
30421;BME280;17218;54.070;10.012;2023-02-28T06:40:44;103047.06;;;0.29;100.00
30421;BME280;17218;54.070;10.012;2023-02-28T06:43:11;103044.72;;;0.32;100.00
30421;BME280;17218;54.070;10.012;2023-02-28T06:45:42;103047.91;;;0.30;100.00
30421;BME280;17218;54.070;10.012;2023-02-28T06:48:09;103048.06;;;0.31;100.00
30421;BME280;17218;54.070;10.012;2023-02-28T06:50:36;103038.72;;;0.32;100.00
30421;BME280;17218;54.070;10.012;2023-02-28T06:53:03;103049.50;;;0.28;100.00
30421;BME280;17218;54.070;10.012;2023-02-28T06:55:29;103046.38;;;0.20;100.00
30421;BME280;17218;54.070;10.012;2023-02-28T06:57:56;103062.00;;;0.25;100.00
30421;BME280;17218;54.070;10.012;2023-02-28T07:00:23;103063.00;;;0.27;100.00
30421;BME280;17218;54.070;10.012;2023-02-28T07:02:51;103057.00;;;0.14;100.00
30421;BME280;17218;54.070;10.012;2023-02-28T07:05:20;103065.56;;;0.15;100.00
30421;BME280;17218;54.070;10.012;2023-02-28T07:07:46;103054.88;;;0.20;100.00
30421;BME280;17218;54.070;10.012;2023-02-28T07:10:13;103063.09;;;0.28;100.00
30421;BME280;17218;54.070;10.012;2023-02-28T07:12:42;103055.59;;;0.42;100.00
30421;BME280;17218;54.070;10.012;2023-02-28T07:15:09;103057.34;;;0.55;100.00
30421;BME280;17218;54.070;10.012;2023-02-28T07:17:36;103063.00;;;0.63;100.00
30421;BME280;17218;54.070;10.012;2023-02-28T07:20:04;103067.31;;;0.64;100.00
30421;BME280;17218;54.070;10.012;2023-02-28T07:22:31;103062.09;;;0.74;100.00
30421;BME280;17218;54.070;10.012;2023-02-28T07:24:57;103062.53;;;0.80;100.00
30421;BME280;17218;54.070;10.012;2023-02-28T07:27:24;103060.19;;;0.83;100.00
30421;BME280;17218;54.070;10.012;2023-02-28T07:29:51;103070.06;;;0.91;100.00
30421;BME280;17218;54.070;10.012;2023-02-28T07:32:17;103066.84;;;0.93;100.00
30421;BME280;17218;54.070;10.012;2023-02-28T07:34:44;103078.16;;;0.97;100.00
30421;BME280;17218;54.070;10.012;2023-02-28T07:37:12;103064.47;;;1.09;100.00
30421;BME280;17218;54.070;10.012;2023-02-28T07:39:39;103073.13;;;1.11;100.00
30421;BME280;17218;54.070;10.012;2023-02-28T07:42:07;103074.41;;;0.92;100.00
30421;BME280;17218;54.070;10.012;2023-02-28T07:44:35;103076.75;;;0.89;100.00
30421;BME280;17218;54.070;10.012;2023-02-28T07:47:05;103078.16;;;1.09;100.00
30421;BME280;17218;54.070;10.012;2023-02-28T07:49:32;103062.66;;;1.19;100.00
30421;BME280;17218;54.070;10.012;2023-02-28T07:51:58;103069.78;;;1.24;100.00
30421;BME280;17218;54.070;10.012;2023-02-28T07:54:26;103070.44;;;1.21;100.00
30421;BME280;17218;54.070;10.012;2023-02-28T07:56:53;103074.06;;;1.37;100.00
30421;BME280;17218;54.070;10.012;2023-02-28T07:59:19;103075.34;;;1.43;100.00
30421;BME280;17218;54.070;10.012;2023-02-28T08:01:45;103077.72;;;1.40;100.00
30421;BME280;17218;54.070;10.012;2023-02-28T08:04:14;103065.56;;;1.50;100.00
30421;BME280;17218;54.070;10.012;2023-02-28T08:06:41;103072.88;;;1.71;100.00
30421;BME280;17218;54.070;10.012;2023-02-28T08:09:08;103072.94;;;1.84;100.00
30421;BME280;17218;54.070;10.012;2023-02-28T08:11:35;103065.31;;;1.98;100.00
30421;BME280;17218;54.070;10.012;2023-02-28T08:14:02;103070.53;;;2.13;100.00
30421;BME280;17218;54.070;10.012;2023-02-28T08:16:28;103073.69;;;2.22;100.00
30421;BME280;17218;54.070;10.012;2023-02-28T08:18:55;103070.34;;;2.23;100.00
30421;BME280;17218;54.070;10.012;2023-02-28T08:21:21;103068.78;;;2.39;100.00
30421;BME280;17218;54.070;10.012;2023-02-28T08:23:48;103067.91;;;2.38;100.00
30421;BME280;17218;54.070;10.012;2023-02-28T08:26:15;103065.72;;;2.45;100.00
30421;BME280;17218;54.070;10.012;2023-02-28T08:28:43;103071.34;;;2.66;100.00
30421;BME280;17218;54.070;10.012;2023-02-28T08:31:13;103069.66;;;2.80;100.00
30421;BME280;17218;54.070;10.012;2023-02-28T08:33:40;103063.53;;;2.92;100.00
30421;BME280;17218;54.070;10.012;2023-02-28T08:36:08;103066.44;;;2.98;100.00
30421;BME280;17218;54.070;10.012;2023-02-28T08:38:35;103067.44;;;3.00;100.00
30421;BME280;17218;54.070;10.012;2023-02-28T08:41:04;103063.59;;;3.07;100.00
30421;BME280;17218;54.070;10.012;2023-02-28T08:43:32;103054.78;;;3.17;100.00
30421;BME280;17218;54.070;10.012;2023-02-28T08:46:00;103055.50;;;3.29;100.00
30421;BME280;17218;54.070;10.012;2023-02-28T08:48:29;103051.38;;;3.31;100.00
30421;BME280;17218;54.070;10.012;2023-02-28T08:50:56;103057.31;;;3.30;100.00
30421;BME280;17218;54.070;10.012;2023-02-28T08:53:23;103058.19;;;3.31;100.00
30421;BME280;17218;54.070;10.012;2023-02-28T08:55:56;103060.94;;;3.34;100.00
30421;BME280;17218;54.070;10.012;2023-02-28T08:58:22;103067.38;;;3.42;100.00
30421;BME280;17218;54.070;10.012;2023-02-28T09:00:52;103066.97;;;3.50;100.00
30421;BME280;17218;54.070;10.012;2023-02-28T09:03:20;103058.97;;;3.58;100.00
30421;BME280;17218;54.070;10.012;2023-02-28T09:05:54;103071.00;;;3.75;100.00
30421;BME280;17218;54.070;10.012;2023-02-28T09:08:21;103063.31;;;3.90;100.00
30421;BME280;17218;54.070;10.012;2023-02-28T09:10:48;103068.97;;;3.99;100.00
30421;BME280;17218;54.070;10.012;2023-02-28T09:13:14;103074.09;;;4.14;100.00
30421;BME280;17218;54.070;10.012;2023-02-28T09:15:41;103071.97;;;4.22;100.00
30421;BME280;17218;54.070;10.012;2023-02-28T09:18:08;103062.06;;;4.28;100.00
30421;BME280;17218;54.070;10.012;2023-02-28T09:20:37;103071.88;;;4.21;100.00
30421;BME280;17218;54.070;10.012;2023-02-28T09:23:03;103061.34;;;4.31;100.00
30421;BME280;17218;54.070;10.012;2023-02-28T09:25:30;103069.38;;;4.37;100.00
30421;BME280;17218;54.070;10.012;2023-02-28T09:27:56;103071.03;;;4.52;100.00
30421;BME280;17218;54.070;10.012;2023-02-28T09:30:23;103070.94;;;4.65;100.00
30421;BME280;17218;54.070;10.012;2023-02-28T09:32:49;103072.69;;;4.67;100.00
30421;BME280;17218;54.070;10.012;2023-02-28T09:35:17;103068.31;;;4.49;100.00
30421;BME280;17218;54.070;10.012;2023-02-28T09:37:45;103077.38;;;4.59;100.00
30421;BME280;17218;54.070;10.012;2023-02-28T09:40:12;103075.69;;;4.74;100.00
30421;BME280;17218;54.070;10.012;2023-02-28T09:42:40;103073.22;;;4.93;100.00
30421;BME280;17218;54.070;10.012;2023-02-28T09:45:13;103071.50;;;5.08;100.00
30421;BME280;17218;54.070;10.012;2023-02-28T09:47:44;103079.34;;;5.11;100.00
30421;BME280;17218;54.070;10.012;2023-02-28T09:50:18;103091.31;;;5.11;100.00
30421;BME280;17218;54.070;10.012;2023-02-28T09:52:48;103089.59;;;4.95;100.00
30421;BME280;17218;54.070;10.012;2023-02-28T09:55:20;103087.84;;;4.94;100.00
30421;BME280;17218;54.070;10.012;2023-02-28T09:57:50;103089.06;;;5.00;100.00
30421;BME280;17218;54.070;10.012;2023-02-28T10:00:19;103083.19;;;5.03;100.00
30421;BME280;17218;54.070;10.012;2023-02-28T10:02:58;103080.72;;;5.05;100.00
30421;BME280;17218;54.070;10.012;2023-02-28T10:05:31;103083.19;;;5.20;100.00
30421;BME280;17218;54.070;10.012;2023-02-28T10:08:12;103089.56;;;5.10;100.00
30421;BME280;17218;54.070;10.012;2023-02-28T10:10:42;103068.03;;;5.24;100.00
30421;BME280;17218;54.070;10.012;2023-02-28T10:13:17;103081.69;;;5.40;100.00
30421;BME280;17218;54.070;10.012;2023-02-28T10:15:49;103084.66;;;5.48;100.00
30421;BME280;17218;54.070;10.012;2023-02-28T10:18:21;103077.97;;;5.52;100.00
30421;BME280;17218;54.070;10.012;2023-02-28T10:20:50;103084.03;;;5.52;100.00
30421;BME280;17218;54.070;10.012;2023-02-28T10:23:21;103082.41;;;5.71;100.00
30421;BME280;17218;54.070;10.012;2023-02-28T10:25:54;103088.22;;;5.85;100.00
30421;BME280;17218;54.070;10.012;2023-02-28T10:28:21;103086.47;;;5.84;100.00
30421;BME280;17218;54.070;10.012;2023-02-28T10:30:49;103087.81;;;5.77;100.00
30421;BME280;17218;54.070;10.012;2023-02-28T10:33:22;103085.94;;;5.73;100.00
30421;BME280;17218;54.070;10.012;2023-02-28T10:35:50;103086.88;;;5.75;100.00
30421;BME280;17218;54.070;10.012;2023-02-28T10:38:20;103085.03;;;5.72;100.00
30421;BME280;17218;54.070;10.012;2023-02-28T10:40:47;103085.78;;;5.88;100.00
30421;BME280;17218;54.070;10.012;2023-02-28T10:43:22;103081.94;;;5.96;100.00
30421;BME280;17218;54.070;10.012;2023-02-28T10:45:55;103094.28;;;6.20;100.00
30421;BME280;17218;54.070;10.012;2023-02-28T10:48:30;103080.81;;;6.44;100.00
30421;BME280;17218;54.070;10.012;2023-02-28T10:50:57;103086.78;;;6.62;100.00
30421;BME280;17218;54.070;10.012;2023-02-28T10:53:36;103085.47;;;6.52;100.00
30421;BME280;17218;54.070;10.012;2023-02-28T10:56:05;103075.16;;;6.52;100.00
30421;BME280;17218;54.070;10.012;2023-02-28T10:58:46;103079.34;;;6.68;100.00
30421;BME280;17218;54.070;10.012;2023-02-28T11:01:16;103079.53;;;6.91;100.00
30421;BME280;17218;54.070;10.012;2023-02-28T11:03:43;103070.06;;;7.30;100.00
30421;BME280;17218;54.070;10.012;2023-02-28T11:06:15;103073.94;;;8.68;100.00
30421;BME280;17218;54.070;10.012;2023-02-28T11:08:46;103064.53;;;9.94;100.00
30421;BME280;17218;54.070;10.012;2023-02-28T11:11:14;103056.47;;;9.85;94.88
30421;BME280;17218;54.070;10.012;2023-02-28T11:13:43;103058.44;;;9.66;96.38
30421;BME280;17218;54.070;10.012;2023-02-28T11:16:12;103066.88;;;9.10;97.67
30421;BME280;17218;54.070;10.012;2023-02-28T11:18:42;103051.66;;;9.43;100.00
30421;BME280;17218;54.070;10.012;2023-02-28T11:21:16;103051.94;;;10.33;94.49
30421;BME280;17218;54.070;10.012;2023-02-28T11:23:46;103057.16;;;10.62;85.39
30421;BME280;17218;54.070;10.012;2023-02-28T11:26:14;103048.31;;;10.55;86.91
30421;BME280;17218;54.070;10.012;2023-02-28T11:28:41;103052.06;;;10.65;83.50
30421;BME280;17218;54.070;10.012;2023-02-28T11:31:17;103039.53;;;11.12;85.54
30421;BME280;17218;54.070;10.012;2023-02-28T11:33:47;103034.44;;;11.49;82.39
30421;BME280;17218;54.070;10.012;2023-02-28T11:36:18;103043.91;;;12.18;79.17
30421;BME280;17218;54.070;10.012;2023-02-28T11:38:47;103030.38;;;12.74;85.50
30421;BME280;17218;54.070;10.012;2023-02-28T11:41:38;103022.88;;;13.88;74.97
30421;BME280;17218;54.070;10.012;2023-02-28T11:44:23;103027.22;;;14.49;59.71
30421;BME280;17218;54.070;10.012;2023-02-28T11:46:54;103025.13;;;13.66;62.34
30421;BME280;17218;54.070;10.012;2023-02-28T11:49:31;103021.69;;;14.96;62.76
30421;BME280;17218;54.070;10.012;2023-02-28T11:52:01;103027.28;;;16.67;58.43
30421;BME280;17218;54.070;10.012;2023-02-28T11:54:50;103012.59;;;17.49;49.50
30421;BME280;17218;54.070;10.012;2023-02-28T11:57:30;103010.13;;;19.35;49.49
30421;BME280;17218;54.070;10.012;2023-02-28T12:00:03;103007.41;;;21.54;45.10
30421;BME280;17218;54.070;10.012;2023-02-28T12:02:41;102998.44;;;23.29;40.21
30421;BME280;17218;54.070;10.012;2023-02-28T12:05:17;102993.97;;;25.42;34.60
30421;BME280;17218;54.070;10.012;2023-02-28T12:07:57;102990.41;;;25.68;32.18
30421;BME280;17218;54.070;10.012;2023-02-28T12:10:28;102997.28;;;25.74;30.25
30421;BME280;17218;54.070;10.012;2023-02-28T12:13:06;102997.31;;;26.67;28.38
30421;BME280;17218;54.070;10.012;2023-02-28T12:15:51;102990.97;;;27.56;29.54
30421;BME280;17218;54.070;10.012;2023-02-28T12:18:26;102976.84;;;27.94;28.07
30421;BME280;17218;54.070;10.012;2023-02-28T12:21:01;102976.75;;;29.09;26.50
30421;BME280;17218;54.070;10.012;2023-02-28T12:23:47;102962.09;;;29.51;25.78
30421;BME280;17218;54.070;10.012;2023-02-28T12:26:30;102957.75;;;31.09;25.63
30421;BME280;17218;54.070;10.012;2023-02-28T12:29:02;102959.16;;;30.86;23.40
30421;BME280;17218;54.070;10.012;2023-02-28T12:31:36;102957.59;;;27.49;24.02
30421;BME280;17218;54.070;10.012;2023-02-28T12:34:06;102963.50;;;26.71;26.54
30421;BME280;17218;54.070;10.012;2023-02-28T12:36:36;102960.25;;;24.91;28.08
30421;BME280;17218;54.070;10.012;2023-02-28T12:39:08;102960.22;;;23.41;29.45
30421;BME280;17218;54.070;10.012;2023-02-28T12:41:42;102969.50;;;22.48;29.60
30421;BME280;17218;54.070;10.012;2023-02-28T12:44:14;102959.66;;;22.95;32.65
30421;BME280;17218;54.070;10.012;2023-02-28T12:46:44;102951.53;;;25.16;29.89
30421;BME280;17218;54.070;10.012;2023-02-28T12:49:16;102941.41;;;26.01;28.53
30421;BME280;17218;54.070;10.012;2023-02-28T12:51:44;102935.63;;;26.14;30.19
30421;BME280;17218;54.070;10.012;2023-02-28T12:54:18;102937.06;;;28.10;28.51
30421;BME280;17218;54.070;10.012;2023-02-28T12:56:54;102928.72;;;28.91;25.11
30421;BME280;17218;54.070;10.012;2023-02-28T12:59:27;102921.16;;;27.30;24.53